This is the latest recevied weather packets stored in our database for station/object SP9MLI-1. If no packets are shown the sender has not sent any weather packets the latest 10 day(s).
| Time | Temp. | Humidity | Pressure | Rain* | Wind** | Luminosity | Snow |
|---|---|---|---|---|---|---|---|
| 1777874027 | 17.78° C | 64% | 1010.6 hPa | 0 mm | - | - | - |
| 1777873994 | 17.78° C | 64% | 1010.6 hPa | 0 mm | - | - | - |
| 1777873093 | 17.78° C | 67% | 1010.3 hPa | 0 mm | - | - | - |
| 1777872193 | 17.78° C | 67% | 1009.3 hPa | 0 mm | - | - | - |
| 1777871338 | 18.33° C | 65% | 1009.6 hPa | 0 mm | - | - | - |
| 1777871293 | 18.33° C | 65% | 1009.6 hPa | 0 mm | - | - | - |
| 1777870393 | 17.22° C | 62% | 1009.9 hPa | 0 mm | - | - | - |
| 1777869493 | 11.67° C | 70% | 1008.6 hPa | 0 mm | - | - | - |
| 1777868593 | 11.67° C | 70% | 1008.6 hPa | 0 mm | - | - | - |
| 1777867694 | 11.67° C | 70% | 1008.6 hPa | 0 mm | - | - | - |
| 1777866793 | 11.67° C | 70% | 1008.6 hPa | 0 mm | - | - | - |
| 1777865893 | 10.56° C | 74% | 1008.6 hPa | 0 mm | - | - | - |
| 1777864994 | 10° C | 86% | 1008.2 hPa | 0 mm | - | - | - |
| 1777864094 | 10° C | 87% | 1008.6 hPa | 0 mm | - | - | - |
| 1777846094 | 13.89° C | 81% | 1011.3 hPa | 0 mm | - | - | - |
| 1777844296 | 13.89° C | 80% | 1011.6 hPa | 0 mm | - | - | - |
| 1777842494 | 13.89° C | 77% | 1012 hPa | 0 mm | - | - | - |
| 1777841594 | 13.33° C | 78% | 1012.3 hPa | 0 mm | - | - | - |
| 1777840694 | 13.89° C | 78% | 1012 hPa | 0 mm | - | - | - |
| 1777839796 | 13.89° C | 77% | 1012 hPa | 0 mm | - | - | - |
| 1777837095 | 15° C | 74% | 1012.3 hPa | 0 mm | - | - | - |
| 1777835296 | 16.11° C | 72% | 1012.3 hPa | 0 mm | - | - | - |
| 1777832601 | 22.78° C | 53% | 1013 hPa | 0 mm | - | - | - |
| 1777831697 | 22.78° C | 53% | 1013 hPa | 0 mm | - | - | - |
| 1777830795 | 22.78° C | 53% | 1013 hPa | 0 mm | - | - | - |
* Rain latest hour (hover to see other rain measurements)
** Current wind speed in m/s (hover to see current wind gust speed)